createdAt,value
2017-07-08T00:02:11.579Z,21.40
2017-07-08T00:04:40.546Z,21.40
2017-07-08T00:07:08.778Z,21.40
2017-07-08T00:09:37.027Z,21.40
2017-07-08T00:12:05.973Z,21.40
2017-07-08T00:14:34.216Z,21.30
2017-07-08T00:17:02.430Z,21.40
2017-07-08T00:19:30.632Z,21.40
2017-07-08T00:21:58.852Z,21.40
2017-07-08T00:24:27.085Z,21.40
2017-07-08T00:26:55.261Z,21.40
2017-07-08T00:29:23.480Z,21.30
2017-07-08T00:31:51.715Z,21.30
2017-07-08T00:34:20.663Z,21.20
2017-07-08T00:36:48.907Z,21.20
2017-07-08T00:39:17.100Z,21.10
2017-07-08T00:41:45.297Z,20.90
2017-07-08T00:44:13.529Z,20.80
2017-07-08T00:46:41.708Z,20.90
2017-07-08T00:49:09.968Z,20.90
2017-07-08T00:51:38.201Z,20.90
2017-07-08T00:54:07.174Z,20.90
2017-07-08T00:56:35.349Z,20.90
2017-07-08T00:59:03.594Z,20.90
2017-07-08T01:01:31.768Z,20.90
2017-07-08T01:03:59.976Z,20.90
2017-07-08T01:06:28.979Z,20.90
2017-07-08T01:08:57.181Z,20.90
2017-07-08T01:11:25.384Z,20.90
2017-07-08T01:13:53.608Z,20.90
2017-07-08T01:16:22.573Z,20.90
2017-07-08T01:18:50.753Z,20.90
2017-07-08T01:21:18.979Z,20.90
2017-07-08T01:23:47.172Z,20.80
2017-07-08T01:26:15.384Z,20.90
2017-07-08T01:28:43.639Z,20.70
2017-07-08T01:31:11.839Z,20.80
2017-07-08T01:33:40.010Z,20.80
2017-07-08T01:36:08.246Z,20.80
2017-07-08T01:38:36.455Z,20.80
2017-07-08T01:41:04.672Z,20.80
2017-07-08T01:43:32.917Z,20.90
2017-07-08T01:46:01.117Z,20.90
2017-07-08T01:48:29.327Z,20.80
2017-07-08T01:50:57.575Z,20.70
2017-07-08T01:53:25.788Z,20.60
2017-07-08T01:55:53.989Z,20.60
2017-07-08T01:58:22.224Z,20.50
2017-07-08T02:00:50.423Z,20.50
2017-07-08T02:03:18.601Z,20.40
2017-07-08T02:05:46.825Z,20.30
2017-07-08T02:08:15.027Z,20.30
2017-07-08T02:10:43.228Z,20.30
2017-07-08T02:13:11.473Z,20.30
2017-07-08T02:15:39.651Z,20.30
2017-07-08T02:18:07.826Z,20.30
2017-07-08T02:20:36.035Z,20.40
2017-07-08T02:23:04.239Z,20.50
2017-07-08T02:25:33.238Z,20.30
2017-07-08T02:28:02.220Z,20.20
2017-07-08T02:30:31.194Z,20.30
2017-07-08T02:32:59.383Z,20.20
2017-07-08T02:35:28.373Z,20.40
2017-07-08T02:37:56.578Z,20.30
2017-07-08T02:40:24.754Z,20.40
2017-07-08T02:45:53.399Z,20.20
2017-07-08T02:48:21.562Z,20.10
2017-07-08T02:50:49.728Z,20.10
2017-07-08T02:53:17.902Z,20.20
2017-07-08T02:55:46.052Z,20.30
2017-07-08T02:58:14.989Z,20.40
2017-07-08T03:00:43.175Z,20.30
2017-07-08T03:03:11.326Z,20.30
2017-07-08T03:05:39.482Z,20.20
2017-07-08T03:08:07.686Z,20.30
2017-07-08T03:10:35.862Z,20.30
2017-07-08T03:13:04.019Z,20.30
2017-07-08T03:15:32.204Z,20.30
2017-07-08T03:18:00.387Z,20.30
2017-07-08T03:20:28.552Z,20.20
2017-07-08T03:22:56.752Z,20.20
2017-07-08T03:25:24.902Z,20.10
2017-07-08T03:27:53.055Z,20.20
2017-07-08T03:30:22.033Z,20.20
2017-07-08T03:32:50.975Z,20.20
2017-07-08T03:35:19.123Z,20.20
2017-07-08T03:37:47.325Z,20.30
2017-07-08T03:40:15.479Z,20.30
2017-07-08T03:42:43.634Z,20.40
2017-07-08T03:45:11.841Z,20.30
2017-07-08T03:47:40.003Z,20.30
2017-07-08T03:50:08.176Z,20.40
2017-07-08T03:52:36.381Z,20.40
2017-07-08T03:55:04.546Z,20.50
2017-07-08T03:57:32.702Z,20.50
2017-07-08T04:00:00.900Z,20.50
2017-07-08T04:02:29.082Z,20.50
2017-07-08T04:04:57.238Z,20.50
2017-07-08T04:07:25.435Z,20.50
2017-07-08T04:09:53.619Z,20.50
2017-07-08T04:12:21.793Z,20.50
2017-07-08T04:14:49.996Z,20.40
2017-07-08T04:17:18.929Z,20.50
2017-07-08T04:19:47.089Z,20.50
2017-07-08T04:22:15.266Z,20.50
2017-07-08T04:24:43.423Z,20.50
2017-07-08T04:27:11.575Z,20.30
2017-07-08T04:29:40.549Z,20.20
2017-07-08T04:32:08.723Z,20.20
2017-07-08T04:34:36.901Z,20.20
2017-07-08T04:37:05.096Z,20.20
2017-07-08T04:39:34.038Z,20.20
2017-07-08T04:42:02.211Z,20.20
2017-07-08T04:44:30.452Z,20.20
2017-07-08T04:46:59.383Z,20.20
2017-07-08T04:49:27.657Z,20.20
2017-07-08T04:51:55.855Z,20.20
2017-07-08T04:54:24.037Z,20.10
2017-07-08T04:56:52.193Z,20.00
2017-07-08T04:59:20.385Z,20.00
2017-07-08T05:01:48.543Z,20.10
2017-07-08T05:04:16.723Z,20.00
2017-07-08T05:06:44.919Z,20.00
2017-07-08T05:09:13.093Z,20.10
2017-07-08T05:11:41.273Z,20.10
2017-07-08T05:14:09.658Z,20.10
2017-07-08T05:16:37.814Z,20.10
2017-07-08T05:19:06.753Z,20.20
2017-07-08T05:21:34.939Z,20.10
2017-07-08T05:24:03.090Z,20.30
2017-07-08T05:26:31.267Z,20.50
2017-07-08T05:28:59.468Z,20.60
2017-07-08T05:31:27.622Z,20.80
2017-07-08T05:33:55.794Z,20.80
2017-07-08T05:36:23.973Z,20.80
2017-07-08T05:38:52.128Z,20.90
2017-07-08T05:41:20.306Z,20.90
2017-07-08T05:43:48.510Z,20.90
2017-07-08T05:46:16.671Z,21.10
2017-07-08T05:48:44.851Z,21.20
2017-07-08T05:51:13.054Z,21.40
2017-07-08T05:53:41.225Z,21.50
2017-07-08T05:56:11.016Z,21.80
2017-07-08T05:58:39.194Z,21.80
2017-07-08T06:01:07.399Z,21.90
2017-07-08T06:03:35.553Z,21.90
2017-07-08T06:06:03.749Z,21.90
2017-07-08T06:08:31.917Z,21.80
2017-07-08T06:11:00.069Z,21.90
2017-07-08T06:13:28.249Z,21.80
2017-07-08T06:15:56.413Z,21.80
2017-07-08T06:18:24.574Z,21.70
2017-07-08T06:20:53.548Z,21.80
2017-07-08T06:23:21.715Z,21.80
2017-07-08T06:25:49.875Z,21.80
2017-07-08T06:28:18.068Z,21.90
2017-07-08T06:30:46.238Z,22.00
2017-07-08T06:33:14.405Z,22.30
2017-07-08T06:35:42.604Z,22.50
2017-07-08T06:38:11.522Z,22.90
2017-07-08T06:40:39.674Z,22.80
2017-07-08T06:43:08.634Z,22.90
2017-07-08T06:45:36.809Z,22.90
2017-07-08T06:48:04.958Z,23.20
2017-07-08T06:50:33.137Z,23.40
2017-07-08T06:53:01.286Z,23.20
2017-07-08T06:55:29.431Z,23.00
2017-07-08T06:57:58.375Z,23.50
2017-07-08T07:00:26.527Z,23.50
2017-07-08T07:02:54.709Z,24.00
2017-07-08T07:05:23.313Z,24.20
2017-07-08T07:07:51.462Z,24.30
2017-07-08T07:10:19.611Z,24.50
2017-07-08T07:12:48.588Z,24.80
2017-07-08T07:15:16.765Z,24.80
2017-07-08T07:17:44.935Z,24.70
2017-07-08T07:20:13.105Z,24.80
2017-07-08T07:22:41.276Z,24.50
2017-07-08T07:25:09.427Z,24.50
2017-07-08T07:27:37.622Z,24.30
2017-07-08T07:30:05.784Z,24.20
2017-07-08T07:32:33.933Z,24.20
2017-07-08T07:35:02.138Z,24.40
2017-07-08T07:37:30.305Z,24.70
2017-07-08T07:39:58.454Z,25.00
2017-07-08T07:42:26.633Z,25.00
2017-07-08T07:44:54.784Z,25.10
2017-07-08T07:47:22.938Z,25.30
2017-07-08T07:49:51.893Z,25.70
2017-07-08T07:52:20.072Z,25.60
2017-07-08T07:54:48.222Z,25.90
2017-07-08T07:57:16.434Z,26.10
2017-07-08T07:59:44.613Z,26.30
2017-07-08T08:02:12.794Z,26.70
2017-07-08T08:04:41.014Z,27.20
2017-07-08T08:07:09.184Z,27.60
2017-07-08T08:09:37.353Z,27.80
2017-07-08T08:12:05.553Z,27.90
2017-07-08T08:14:33.733Z,27.90
2017-07-08T08:17:01.882Z,28.10
2017-07-08T08:19:30.071Z,27.80
2017-07-08T08:21:58.223Z,27.90
2017-07-08T08:24:26.407Z,27.70
2017-07-08T08:26:54.589Z,27.50
2017-07-08T08:29:22.756Z,27.00
2017-07-08T08:31:50.902Z,27.70
2017-07-08T08:34:19.094Z,29.00
2017-07-08T08:36:47.266Z,30.40
2017-07-08T08:39:15.422Z,31.50
2017-07-08T08:41:43.597Z,31.60
2017-07-08T08:44:11.770Z,31.60
2017-07-08T08:46:40.712Z,30.50
2017-07-08T08:49:08.894Z,30.40
2017-07-08T08:51:37.321Z,29.20
2017-07-08T08:54:05.477Z,28.40
2017-07-08T08:56:33.668Z,28.00
2017-07-08T08:59:01.842Z,27.90
2017-07-08T09:01:30.787Z,28.00
2017-07-08T09:03:58.964Z,27.90
2017-07-08T09:06:27.119Z,27.90
2017-07-08T09:08:55.285Z,27.90
2017-07-08T09:11:23.479Z,28.80
2017-07-08T09:13:51.644Z,31.00
2017-07-08T09:16:19.822Z,32.50
2017-07-08T09:18:48.019Z,32.40
2017-07-08T09:21:16.180Z,32.30
2017-07-08T09:23:44.326Z,32.60
2017-07-08T09:26:12.530Z,31.80
2017-07-08T09:28:40.682Z,31.10
2017-07-08T09:31:08.857Z,30.20
2017-07-08T09:33:37.043Z,30.40
2017-07-08T09:36:05.453Z,30.40
2017-07-08T09:38:33.601Z,30.00
2017-07-08T09:41:01.777Z,29.50
2017-07-08T09:43:29.922Z,29.10
2017-07-08T09:45:58.071Z,28.70
2017-07-08T09:48:26.259Z,28.20
2017-07-08T09:50:55.179Z,27.60
2017-07-08T09:53:23.330Z,27.60
2017-07-08T09:55:51.520Z,27.50
2017-07-08T09:58:19.674Z,27.90
2017-07-08T10:00:48.593Z,29.60
2017-07-08T10:03:16.784Z,29.60
2017-07-08T10:05:44.930Z,30.00
2017-07-08T10:08:13.083Z,30.10
2017-07-08T10:10:42.027Z,29.40
2017-07-08T10:13:10.193Z,29.40
2017-07-08T10:15:38.342Z,29.00
2017-07-08T10:18:06.517Z,29.00
2017-07-08T10:20:34.668Z,29.20
2017-07-08T10:23:02.821Z,29.30
2017-07-08T10:25:31.060Z,29.20
2017-07-08T10:27:59.215Z,29.10
2017-07-08T10:30:27.384Z,29.00
2017-07-08T10:32:56.344Z,29.50
2017-07-08T10:35:24.485Z,29.50
2017-07-08T10:37:52.658Z,29.50
2017-07-08T10:40:20.847Z,29.00
2017-07-08T10:42:48.996Z,28.40
2017-07-08T10:45:17.150Z,28.20
2017-07-08T10:47:46.097Z,27.70
2017-07-08T10:50:14.263Z,27.70
2017-07-08T10:52:42.432Z,29.60
2017-07-08T10:55:10.629Z,31.60
2017-07-08T10:57:38.801Z,32.20
2017-07-08T11:00:06.980Z,32.40
2017-07-08T11:02:35.173Z,33.70
2017-07-08T11:05:03.342Z,35.30
2017-07-08T11:07:31.495Z,35.40
2017-07-08T11:09:59.678Z,35.20
2017-07-08T11:12:27.832Z,34.50
2017-07-08T11:14:55.998Z,34.70
2017-07-08T11:17:24.185Z,34.40
2017-07-08T11:19:52.333Z,33.10
2017-07-08T11:22:20.483Z,31.40
2017-07-08T11:24:48.663Z,30.10
2017-07-08T11:27:17.602Z,28.80
2017-07-08T11:29:45.754Z,28.80
2017-07-08T11:32:13.934Z,29.00
2017-07-08T11:34:42.101Z,29.60
2017-07-08T11:37:10.280Z,30.20
2017-07-08T11:39:38.790Z,30.60
2017-07-08T11:42:06.947Z,30.40
2017-07-08T11:44:35.097Z,30.10
2017-07-08T11:47:03.274Z,29.90
2017-07-08T11:49:31.440Z,29.50
2017-07-08T11:51:59.586Z,29.50
2017-07-08T11:54:27.764Z,29.40
2017-07-08T11:56:55.932Z,29.70
2017-07-08T11:59:24.085Z,29.70
2017-07-08T12:01:52.285Z,29.40
2017-07-08T12:04:20.442Z,29.10
2017-07-08T12:06:48.618Z,28.90
2017-07-08T12:09:16.794Z,28.90
2017-07-08T12:11:44.946Z,28.90
2017-07-08T12:14:13.098Z,28.30
2017-07-08T12:16:41.289Z,27.80
2017-07-08T12:19:09.437Z,27.60
2017-07-08T12:21:37.597Z,27.30
2017-07-08T12:24:06.565Z,27.20
2017-07-08T12:26:34.737Z,27.20
2017-07-08T12:29:02.885Z,27.10
2017-07-08T12:31:31.078Z,27.00
2017-07-08T12:33:59.262Z,26.90
2017-07-08T12:36:27.418Z,26.80
2017-07-08T12:38:55.602Z,27.00
2017-07-08T12:41:23.763Z,27.30
2017-07-08T12:43:51.933Z,27.50
2017-07-08T12:46:20.122Z,27.30
2017-07-08T12:48:48.297Z,27.30
2017-07-08T12:51:16.458Z,27.40
2017-07-08T12:53:44.636Z,27.80
2017-07-08T12:56:12.783Z,28.00
2017-07-08T12:58:40.966Z,27.70
2017-07-08T13:01:09.161Z,27.60
2017-07-08T13:03:37.336Z,27.50
2017-07-08T13:06:05.505Z,27.40
2017-07-08T13:08:33.708Z,27.40
2017-07-08T13:11:01.884Z,27.70
2017-07-08T13:13:30.815Z,28.00
2017-07-08T13:15:59.011Z,28.00
2017-07-08T13:18:27.181Z,27.80
2017-07-08T13:20:55.346Z,28.00
2017-07-08T13:23:23.521Z,28.20
2017-07-08T13:25:51.690Z,28.10
2017-07-08T13:28:19.861Z,27.80
2017-07-08T13:30:48.300Z,27.60
2017-07-08T13:33:16.450Z,27.30
2017-07-08T13:35:44.625Z,27.10
2017-07-08T13:38:12.809Z,26.60
2017-07-08T13:40:40.981Z,26.50
2017-07-08T13:43:09.149Z,26.60
2017-07-08T13:45:37.336Z,26.40
2017-07-08T13:48:05.487Z,26.30
2017-07-08T13:50:33.673Z,26.30
2017-07-08T13:53:01.869Z,26.50
2017-07-08T13:55:30.031Z,26.60
2017-07-08T13:57:58.206Z,26.70
2017-07-08T14:00:26.409Z,26.60
2017-07-08T14:02:54.559Z,26.50
2017-07-08T14:05:22.736Z,26.40
2017-07-08T14:07:50.937Z,26.00
2017-07-08T14:10:19.893Z,26.10
2017-07-08T14:12:48.071Z,26.10
2017-07-08T14:15:16.275Z,26.20
2017-07-08T14:17:44.427Z,26.20
2017-07-08T14:20:12.580Z,26.20
2017-07-08T14:22:40.785Z,26.40
2017-07-08T14:25:08.959Z,26.60
2017-07-08T14:27:37.134Z,26.90
2017-07-08T14:30:05.338Z,27.00
2017-07-08T14:32:34.282Z,26.70
2017-07-08T14:35:02.451Z,26.80
2017-07-08T14:37:30.654Z,26.70
2017-07-08T14:39:58.807Z,26.50
2017-07-08T14:42:26.987Z,25.90
2017-07-08T14:44:55.182Z,25.60
2017-07-08T14:47:23.343Z,25.50
2017-07-08T14:49:51.498Z,25.80
2017-07-08T14:52:19.702Z,26.10
2017-07-08T14:54:47.881Z,26.30
2017-07-08T14:57:16.035Z,26.40
2017-07-08T14:59:44.994Z,26.00
2017-07-08T15:02:13.158Z,25.90
2017-07-08T15:04:41.326Z,25.90
2017-07-08T15:07:09.499Z,25.90
2017-07-08T15:09:37.673Z,25.80
2017-07-08T15:12:05.823Z,25.90
2017-07-08T15:14:34.026Z,25.80
2017-07-08T15:17:02.174Z,25.60
2017-07-08T15:19:30.324Z,25.50
2017-07-08T15:21:59.288Z,25.50
2017-07-08T15:24:27.462Z,25.50
2017-07-08T15:26:55.633Z,25.50
2017-07-08T15:29:23.810Z,25.40
2017-07-08T15:31:51.958Z,25.20
2017-07-08T15:34:20.894Z,25.10
2017-07-08T15:36:49.071Z,25.10
2017-07-08T15:39:17.236Z,25.20
2017-07-08T15:41:45.407Z,25.30
2017-07-08T15:44:13.613Z,25.40
2017-07-08T15:46:41.788Z,25.30
2017-07-08T15:49:09.956Z,25.20
2017-07-08T15:51:38.135Z,25.10
2017-07-08T15:54:06.307Z,25.00
2017-07-08T15:56:34.480Z,24.80
2017-07-08T15:59:02.676Z,24.70
2017-07-08T16:01:30.822Z,24.50
2017-07-08T16:03:58.974Z,24.40
2017-07-08T16:06:27.166Z,24.40
2017-07-08T16:08:55.333Z,24.20
2017-07-08T16:11:23.502Z,24.00
2017-07-08T16:13:51.690Z,23.90
2017-07-08T16:16:19.857Z,23.90
2017-07-08T16:18:48.031Z,23.90
2017-07-08T16:21:16.215Z,23.90
2017-07-08T16:23:44.387Z,23.90
2017-07-08T16:26:12.537Z,23.90
2017-07-08T16:28:40.737Z,23.90
2017-07-08T16:31:08.900Z,23.70
2017-07-08T16:33:37.066Z,23.60
2017-07-08T16:36:05.259Z,23.60
2017-07-08T16:38:33.430Z,23.50
2017-07-08T16:41:01.577Z,23.50
2017-07-08T16:43:29.773Z,23.30
2017-07-08T16:45:57.988Z,23.30
2017-07-08T16:48:26.113Z,23.30
2017-07-08T16:50:54.309Z,23.30
2017-07-08T16:53:22.495Z,23.20
2017-07-08T16:55:50.661Z,23.20
2017-07-08T16:58:18.850Z,23.20
2017-07-08T17:00:47.013Z,23.00
2017-07-08T17:03:15.186Z,22.90
2017-07-08T17:05:43.377Z,22.80
2017-07-08T17:08:11.546Z,22.70
2017-07-08T17:10:39.726Z,22.70
2017-07-08T17:13:07.895Z,22.70
2017-07-08T17:15:36.045Z,22.60
2017-07-08T17:18:04.193Z,22.70
2017-07-08T17:20:32.381Z,22.70
2017-07-08T17:23:00.529Z,22.70
2017-07-08T17:25:29.448Z,22.60
2017-07-08T17:27:57.642Z,22.60
2017-07-08T17:30:25.808Z,22.60
2017-07-08T17:32:53.969Z,22.50
2017-07-08T17:35:22.160Z,22.40
2017-07-08T17:37:50.313Z,22.40
2017-07-08T17:40:18.458Z,22.30
2017-07-08T17:42:47.422Z,22.20
2017-07-08T17:45:15.589Z,22.20
2017-07-08T17:47:43.760Z,22.10
2017-07-08T17:50:11.939Z,22.10
2017-07-08T17:52:40.108Z,22.20
2017-07-08T17:55:08.254Z,22.10
2017-07-08T17:57:36.458Z,22.10
2017-07-08T18:00:04.629Z,22.10
2017-07-08T18:02:32.787Z,22.20
2017-07-08T18:05:00.981Z,22.10
2017-07-08T18:07:29.131Z,22.20
2017-07-08T18:09:57.279Z,22.20
2017-07-08T18:12:25.486Z,22.10
2017-07-08T18:14:53.648Z,22.10
2017-07-08T18:17:21.814Z,21.90
2017-07-08T18:19:50.014Z,21.80
2017-07-08T18:22:18.161Z,21.80
2017-07-08T18:24:47.077Z,21.70
2017-07-08T18:27:15.281Z,21.70
2017-07-08T18:29:43.442Z,21.50
2017-07-08T18:32:11.604Z,21.30
2017-07-08T18:34:39.795Z,21.30
2017-07-08T18:37:07.942Z,21.30
2017-07-08T18:39:36.119Z,21.30
2017-07-08T18:42:04.308Z,21.10
2017-07-08T18:44:32.500Z,21.10
2017-07-08T18:47:00.657Z,20.90
2017-07-08T18:49:28.834Z,20.90
2017-07-08T18:51:57.001Z,20.90
2017-07-08T18:54:25.148Z,20.70
2017-07-08T18:56:54.110Z,20.60
2017-07-08T18:59:22.262Z,20.50
2017-07-08T19:01:50.406Z,20.50
2017-07-08T19:04:18.583Z,20.50
2017-07-08T19:06:46.730Z,20.50
2017-07-08T19:09:15.640Z,20.50
2017-07-08T19:11:43.837Z,20.50
2017-07-08T19:14:11.986Z,20.50
2017-07-08T19:16:40.139Z,20.50
2017-07-08T19:19:09.096Z,20.50
2017-07-08T19:21:37.258Z,20.50
2017-07-08T19:24:05.420Z,20.60
2017-07-08T19:26:33.610Z,20.70
2017-07-08T19:29:01.758Z,20.60
2017-07-08T19:31:29.903Z,20.50
2017-07-08T19:33:58.106Z,20.40
2017-07-08T19:36:26.273Z,20.30
2017-07-08T19:38:54.414Z,20.20
2017-07-08T19:41:22.610Z,20.20
2017-07-08T19:43:51.531Z,20.00
2017-07-08T19:46:19.697Z,19.90
2017-07-08T19:48:47.890Z,19.90
2017-07-08T19:51:16.046Z,19.80
2017-07-08T19:53:44.216Z,19.80
2017-07-08T19:56:12.401Z,19.90
2017-07-08T19:58:40.547Z,19.90
2017-07-08T20:01:08.716Z,20.00
2017-07-08T20:03:37.680Z,19.90
2017-07-08T20:06:05.828Z,19.90
2017-07-08T20:08:33.988Z,19.70
2017-07-08T20:11:02.182Z,19.70
2017-07-08T20:13:30.349Z,19.60
2017-07-08T20:15:58.517Z,19.60
2017-07-08T20:18:26.710Z,19.60
2017-07-08T20:20:54.881Z,19.50
2017-07-08T20:23:23.030Z,19.50
2017-07-08T20:25:51.232Z,19.60
2017-07-08T20:28:19.405Z,19.50
2017-07-08T20:30:47.555Z,19.50
2017-07-08T20:33:15.726Z,19.40
2017-07-08T20:35:43.893Z,19.30
2017-07-08T20:38:12.042Z,19.20
2017-07-08T20:40:40.219Z,19.20
2017-07-08T20:43:08.378Z,19.20
2017-07-08T20:45:36.545Z,19.20
2017-07-08T20:48:04.718Z,19.30
2017-07-08T20:50:32.870Z,19.20
2017-07-08T20:53:01.023Z,19.20
2017-07-08T20:55:29.202Z,19.10
2017-07-08T20:57:57.353Z,19.00
2017-07-08T21:00:25.517Z,19.00
2017-07-08T21:02:54.482Z,18.90
2017-07-08T21:05:22.629Z,18.90
2017-07-08T21:07:50.798Z,18.90
2017-07-08T21:10:18.990Z,19.00
2017-07-08T21:12:47.167Z,19.00
2017-07-08T21:15:15.315Z,19.00
2017-07-08T21:17:43.501Z,18.90
2017-07-08T21:20:11.651Z,18.80
2017-07-08T21:22:39.856Z,18.70
2017-07-08T21:25:08.027Z,18.70
2017-07-08T21:27:36.200Z,18.50
2017-07-08T21:30:04.346Z,18.50
2017-07-08T21:32:32.561Z,18.50
2017-07-08T21:35:00.705Z,18.60
2017-07-08T21:37:28.868Z,18.60
2017-07-08T21:39:57.803Z,18.60
2017-07-08T21:42:25.964Z,18.60
2017-07-08T21:44:54.116Z,18.50
2017-07-08T21:47:22.294Z,18.40
2017-07-08T21:49:50.471Z,18.20
2017-07-08T21:52:18.618Z,18.20
2017-07-08T21:54:47.585Z,18.30
2017-07-08T21:57:15.731Z,18.30
2017-07-08T21:59:43.886Z,18.30
2017-07-08T22:02:12.062Z,18.20
2017-07-08T22:04:40.215Z,18.10
2017-07-08T22:07:09.124Z,18.10
2017-07-08T22:09:37.316Z,18.10
2017-07-08T22:12:05.488Z,18.10
2017-07-08T22:14:33.629Z,18.10
2017-07-08T22:17:02.584Z,18.10
2017-07-08T22:19:30.735Z,18.10
2017-07-08T22:21:58.886Z,18.10
2017-07-08T22:24:27.055Z,18.10
2017-07-08T22:26:55.213Z,18.00
2017-07-08T22:29:24.165Z,17.80
2017-07-08T22:31:52.343Z,17.80
2017-07-08T22:34:20.506Z,17.80
2017-07-08T22:36:48.675Z,17.80
2017-07-08T22:39:16.847Z,17.90
2017-07-08T22:41:45.018Z,17.90
2017-07-08T22:44:13.185Z,17.80
2017-07-08T22:46:41.363Z,17.70
2017-07-08T22:49:09.539Z,17.70
2017-07-08T22:51:37.689Z,17.70
2017-07-08T22:54:05.874Z,17.60
2017-07-08T22:56:34.041Z,17.60
2017-07-08T22:59:02.213Z,17.50
2017-07-08T23:01:30.394Z,17.40
2017-07-08T23:03:58.561Z,17.50
2017-07-08T23:06:26.725Z,17.50
2017-07-08T23:08:55.669Z,17.50
2017-07-08T23:11:23.832Z,17.50
2017-07-08T23:13:51.982Z,17.40
2017-07-08T23:16:20.192Z,17.40
2017-07-08T23:18:49.108Z,17.40
2017-07-08T23:21:17.274Z,17.30
2017-07-08T23:23:45.455Z,17.30
2017-07-08T23:26:13.621Z,17.20
2017-07-08T23:28:41.766Z,17.20
2017-07-08T23:31:09.962Z,17.10
2017-07-08T23:33:38.133Z,17.00
2017-07-08T23:36:06.301Z,17.00
2017-07-08T23:38:34.472Z,17.00
2017-07-08T23:41:02.637Z,17.00
2017-07-08T23:43:30.806Z,16.90
2017-07-08T23:45:58.986Z,17.00
2017-07-08T23:48:27.152Z,17.00
2017-07-08T23:50:55.320Z,17.00
2017-07-08T23:53:23.495Z,17.00
2017-07-08T23:55:51.665Z,16.90
2017-07-08T23:58:20.580Z,16.80
